Accueil
METAR-TAF:

METAR-TAF

Aéroports :

Grafton, Australie

latitude: 29-45-36S, longitude: 153-01-48E, altitude: 34 m

Observation

Le bulletin a été fait il y a 57 minutes, à 06:00 UTC
Vent calme
Température 18°C
Humidité 73%
Pression 1024 hPa
Visibilité 10 km ou plus
Ciel couvert à une hauteur de 12500 ft

METAR: YGFN 270600Z AUTO 00000KT 9999 // OVC125 18/13 Q1024

Heure: 16:57 (06:57 UTC)


TAF: absent

Observations et prévisions météorologiques de plus de 4000 aéroports (messages METAR et TAF).

Les stations disponibles sont représentées par des disques jaunes et rouges sur la carte.

Passer la souris dessus pour voir le nom de la station.

Cliquer dessus pour voir les observations et prévisions météorologiques.

Pour changer de carte: cliquez sur les boutons verts avec une croix noire pour zoomer, sur le bouton vert avec un tiret pour effectuer un zoom arrière, ou sur les flèches vertes pour les cartes adjacentes.


METAR-TAF: